M I D A S
Marine Information and Data Acquisition System
Tripno 1832 of the Zeeleeuw from 2009-09-08 06:42:32 to 2009-09-08 15:46:46
Back to CruiseResearch ActivitiesStationsMapUnderway DataData graphs

EquipmentUnitsComment
TimeDGPSUTC
LatitudeDGPSDM.mWGS84
LongitudeDGPSDM.mWGS84
HeadingGyrodeg 
SOGDGPSknotsSpeed over ground
COGDGPSdegCourse over ground
DepthEcho soundermeters200 kHz
Missing or incorrect values are displayed as -999
Navigation data collected by the RV Zeeleeuw from 2009-09-08 06:35:41 to 2009-09-08 17:01:32
                                                                                    Next 1000 lines
Time Latitude Longitude Heading SOG COG Depth
2009-09-08 06:35:50 51°13.662 2°55.954 111.1 1.2 288 5.6
2009-09-08 06:35:56 51°13.663 2°55.95 111.1 1.6 293 7.6
2009-09-08 06:36:01 51°13.664 2°55.946 111.5 1.9 290 7.6
2009-09-08 06:36:06 51°13.665 2°55.942 112 2.2 294 -999
2009-09-08 06:36:12 51°13.667 2°55.935 112.7 2.5 292 -999
2009-09-08 06:36:17 51°13.668 2°55.93 113.2 2.8 296 -999
2009-09-08 06:36:23 51°13.67 2°55.923 113.4 3 294 -999
2009-09-08 06:36:29 51°13.672 2°55.915 113.3 3.2 295 -999
2009-09-08 06:36:34 51°13.674 2°55.908 113 3.4 293 -999
2009-09-08 06:36:40 51°13.677 2°55.899 112.4 3.6 293 -999
2009-09-08 06:36:45 51°13.679 2°55.892 111.4 3.8 293 -999
2009-09-08 06:36:50 51°13.681 2°55.884 110.4 3.8 292 -999
2009-09-08 06:36:54 51°13.682 2°55.877 109.7 3.9 291 -999
2009-09-08 06:37:00 51°13.684 2°55.868 108.5 3.9 289 -999
2009-09-08 06:37:05 51°13.686 2°55.859 106.9 3.9 287 -999
2009-09-08 06:37:09 51°13.687 2°55.852 104.6 4 286 -999
2009-09-08 06:37:14 51°13.689 2°55.844 103.1 4 285 -999
2009-09-08 06:37:20 51°13.691 2°55.833 101 4 284 -999
2009-09-08 06:37:25 51°13.692 2°55.825 98.6 3.9 281 -999
2009-09-08 06:37:30 51°13.693 2°55.817 96.6 3.8 280 -999
2009-09-08 06:37:35 51°13.694 2°55.809 94.9 3.7 279 -999
2009-09-08 06:37:40 51°13.694 2°55.801 92.8 3.5 277 -999
2009-09-08 06:37:45 51°13.695 2°55.794 90.7 3.4 276 -999
2009-09-08 06:37:50 51°13.695 2°55.787 88.6 3.2 274 -999
2009-09-08 06:37:54 51°13.695 2°55.781 86.4 3.1 272 -999
2009-09-08 06:38:00 51°13.695 2°55.774 84.3 2.9 271 -999
2009-09-08 06:38:05 51°13.695 2°55.767 82.1 2.8 268 -999
2009-09-08 06:38:10 51°13.695 2°55.761 79.9 2.8 268 -999
2009-09-08 06:38:14 51°13.695 2°55.757 78.1 2.6 267 11.9
2009-09-08 06:38:19 51°13.695 2°55.752 76.5 2.3 266 12.2
2009-09-08 06:38:24 51°13.694 2°55.748 74.9 1.9 266 12.3
2009-09-08 06:38:29 51°13.694 2°55.744 72.3 1.6 264 12.4
2009-09-08 06:38:34 51°13.694 2°55.742 69.2 1.2 266 12.5
2009-09-08 06:38:38 51°13.694 2°55.74 66 0.9 272 12.6
2009-09-08 06:38:43 51°13.694 2°55.739 62.5 0.7 281 12.7
2009-09-08 06:38:48 51°13.694 2°55.738 58.6 0.5 289 12.5
2009-09-08 06:38:53 51°13.695 2°55.737 54.5 0.4 322 12.5
2009-09-08 06:38:58 51°13.696 2°55.737 50.4 0.5 342 12.5
2009-09-08 06:39:02 51°13.696 2°55.737 46 0.7 1 12.6
2009-09-08 06:39:07 51°13.698 2°55.737 41.5 0.9 10 12.6
2009-09-08 06:39:12 51°13.699 2°55.738 36.2 1.1 8 12.6
2009-09-08 06:39:17 51°13.701 2°55.738 31.8 1.3 12 12.3
2009-09-08 06:39:22 51°13.703 2°55.739 25 1.5 7 12.2
2009-09-08 06:39:26 51°13.705 2°55.739 19.4 1.7 6 12.2
2009-09-08 06:39:30 51°13.707 2°55.739 13.9 1.9 -999 12.4
2009-09-08 06:39:36 51°13.711 2°55.739 8.5 2.1 357 12.4
2009-09-08 06:39:41 51°13.714 2°55.738 3.2 2.3 352 12.3
2009-09-08 06:39:46 51°13.717 2°55.737 357.9 2.3 349 12.2
2009-09-08 06:39:51 51°13.721 2°55.736 352.7 2.6 345 12.2
2009-09-08 06:39:56 51°13.724 2°55.734 348.2 2.8 339 12
2009-09-08 06:40:01 51°13.728 2°55.731 342.7 3 337 11.8
2009-09-08 06:40:06 51°13.732 2°55.727 336 3.2 331 11.6
2009-09-08 06:40:11 51°13.736 2°55.723 332.1 3.7 330 11.5
2009-09-08 06:40:16 51°13.741 2°55.718 329.7 4 327 11.4
2009-09-08 06:40:21 51°13.746 2°55.713 328.8 4.3 328 11.4
2009-09-08 06:40:26 51°13.751 2°55.708 328.9 4.6 328 11.4
2009-09-08 06:40:31 51°13.757 2°55.702 329.2 4.9 328 11.2
2009-09-08 06:40:36 51°13.763 2°55.696 329.8 5.2 328 11.2
2009-09-08 06:40:41 51°13.77 2°55.69 330 5.5 329 11
2009-09-08 06:40:46 51°13.777 2°55.683 330.1 5.7 328 11
2009-09-08 06:40:50 51°13.782 2°55.678 330.2 6 329 10.9
2009-09-08 06:40:56 51°13.791 2°55.668 330.5 6.4 328 11.1
2009-09-08 06:41:01 51°13.8 2°55.661 331.4 6.8 331 11
2009-09-08 06:41:06 51°13.808 2°55.654 332.6 7 331 10.9
2009-09-08 06:41:11 51°13.817 2°55.647 334.7 7.2 333 10.8
2009-09-08 06:41:16 51°13.827 2°55.639 335.8 7.5 333 10.6
2009-09-08 06:41:21 51°13.836 2°55.632 335.9 7.7 334 10.4
2009-09-08 06:41:26 51°13.846 2°55.624 336.2 7.9 335 10.6
2009-09-08 06:41:31 51°13.856 2°55.616 336.6 8 334 10.9
2009-09-08 06:41:36 51°13.866 2°55.609 337.1 8.2 335 10.7
2009-09-08 06:41:41 51°13.877 2°55.601 337.6 8.3 336 11.1
2009-09-08 06:41:46 51°13.887 2°55.594 337.8 8.4 336 11.2
2009-09-08 06:41:50 51°13.896 2°55.588 337.8 8.5 336 11.3
2009-09-08 06:41:56 51°13.908 2°55.578 338.2 8.4 336 11.1
2009-09-08 06:42:01 51°13.919 2°55.571 339 8.5 336 11.1
2009-09-08 06:42:06 51°13.93 2°55.563 338.7 8.6 336 11
2009-09-08 06:42:10 51°13.939 2°55.557 338.4 8.7 336 11
2009-09-08 06:42:16 51°13.953 2°55.548 338.9 8.8 337 11
2009-09-08 06:42:21 51°13.964 2°55.539 338.6 8.9 335 11
2009-09-08 06:42:26 51°13.975 2°55.532 337.8 9 336 11
2009-09-08 06:42:31 51°13.987 2°55.523 338.1 9.1 336 11
2009-09-08 06:42:36 51°13.999 2°55.515 338.2 9.2 336 11.1
2009-09-08 06:42:41 51°14.01 2°55.507 337.6 9.3 336 11
2009-09-08 06:42:46 51°14.022 2°55.498 337.5 9.4 336 11
2009-09-08 06:42:51 51°14.035 2°55.49 338.2 9.6 336 10.6
2009-09-08 06:42:56 51°14.047 2°55.481 338.2 9.7 336 10.9
2009-09-08 06:43:01 51°14.06 2°55.472 338.5 9.8 337 11
2009-09-08 06:43:06 51°14.072 2°55.463 338.4 9.9 335 10.9
2009-09-08 06:43:11 51°14.085 2°55.454 337.9 10.1 335 10.8
2009-09-08 06:43:16 51°14.097 2°55.444 337.2 10.2 334 11
2009-09-08 06:43:21 51°14.11 2°55.433 336.3 10.2 333 10.9
2009-09-08 06:43:26 51°14.123 2°55.423 335.4 10.3 332 11
2009-09-08 06:43:31 51°14.136 2°55.412 334.5 10.4 331 11.1
2009-09-08 06:43:36 51°14.148 2°55.4 333.6 10.5 330 11.1
2009-09-08 06:43:41 51°14.161 2°55.387 332.1 10.6 328 11
2009-09-08 06:43:46 51°14.173 2°55.374 329.6 10.6 326 11.2
2009-09-08 06:43:51 51°14.185 2°55.36 327.8 10.6 324 11.5
2009-09-08 06:43:56 51°14.197 2°55.346 325.9 10.7 323 11.1
2009-09-08 06:44:01 51°14.208 2°55.331 324 10.7 321 11.2
2009-09-08 06:44:06 51°14.219 2°55.316 322.7 10.7 320 11
2009-09-08 06:44:11 51°14.23 2°55.299 320.2 10.8 317 11.2
2009-09-08 06:44:16 51°14.241 2°55.283 319.2 10.7 317 11
2009-09-08 06:44:21 51°14.252 2°55.266 318.4 10.8 316 10.9
2009-09-08 06:44:26 51°14.262 2°55.249 317.4 10.9 314 10.7
2009-09-08 06:44:31 51°14.273 2°55.232 316.1 10.9 314 10.4
2009-09-08 06:44:36 51°14.283 2°55.215 315.9 10.9 314 10.4
2009-09-08 06:44:41 51°14.294 2°55.197 315.9 11 314 10.3
2009-09-08 06:44:46 51°14.304 2°55.179 315.2 11.1 312 10.3
2009-09-08 06:44:50 51°14.313 2°55.165 314.4 11.2 313 10.3
2009-09-08 06:44:56 51°14.326 2°55.143 314.8 11.3 314 10.7
2009-09-08 06:45:01 51°14.337 2°55.125 315.4 11.4 314 10.8
2009-09-08 06:45:06 51°14.347 2°55.106 315 11.5 313 11.1
2009-09-08 06:45:11 51°14.358 2°55.088 314.7 11.5 314 10.4
2009-09-08 06:45:16 51°14.37 2°55.07 315.9 11.5 315 10.5
2009-09-08 06:45:21 51°14.381 2°55.052 317.2 11.5 315 10.1
2009-09-08 06:45:26 51°14.393 2°55.034 317.3 11.5 315 9.8
2009-09-08 06:45:31 51°14.404 2°55.017 318.2 11.5 316 9.8
2009-09-08 06:45:36 51°14.416 2°55 319.5 11.5 318 9.8
2009-09-08 06:45:41 51°14.428 2°54.984 321.9 11.4 320 9.8
2009-09-08 06:45:46 51°14.441 2°54.968 324.5 11.5 321 9.8
2009-09-08 06:45:51 51°14.453 2°54.953 326.1 11.5 322 9.9
2009-09-08 06:45:56 51°14.466 2°54.938 327.2 11.5 324 10
2009-09-08 06:46:01 51°14.48 2°54.924 330.1 11.4 326 9.9
2009-09-08 06:46:06 51°14.493 2°54.91 332.5 11.4 327 10
2009-09-08 06:46:11 51°14.506 2°54.897 334.6 11.4 327 9.7
2009-09-08 06:46:16 51°14.519 2°54.882 334.9 11.4 326 9.7
2009-09-08 06:46:21 51°14.532 2°54.868 334.4 11.4 326 9.6
2009-09-08 06:46:26 51°14.546 2°54.854 334.2 11.4 326 9.6
2009-09-08 06:46:31 51°14.559 2°54.841 334.9 11.4 327 9.5
2009-09-08 06:46:36 51°14.572 2°54.827 335.3 11.4 327 9.5
2009-09-08 06:46:41 51°14.586 2°54.814 335.5 11.4 328 9.4
2009-09-08 06:46:46 51°14.599 2°54.8 335.8 11.4 327 9.4
2009-09-08 06:46:51 51°14.613 2°54.787 335.9 11.4 328 9.3
2009-09-08 06:46:56 51°14.626 2°54.773 336.2 11.3 328 9.3
2009-09-08 06:47:01 51°14.639 2°54.76 336.3 11.4 328 9.3
2009-09-08 06:47:06 51°14.652 2°54.747 336.1 11.3 328 9.3
2009-09-08 06:47:11 51°14.666 2°54.734 336 11.4 328 9.3
2009-09-08 06:47:16 51°14.679 2°54.72 335.9 11.4 328 9.3
2009-09-08 06:47:21 51°14.693 2°54.707 335.9 11.4 328 9.3
2009-09-08 06:47:26 51°14.706 2°54.694 336.1 11.4 328 9.3
2009-09-08 06:47:30 51°14.717 2°54.683 335.4 11.4 327 9.3
2009-09-08 06:47:36 51°14.733 2°54.666 335.1 11.4 327 9.2
2009-09-08 06:47:41 51°14.746 2°54.652 334.4 11.4 326 9.3
2009-09-08 06:47:46 51°14.759 2°54.638 333.9 11.4 326 9.3
2009-09-08 06:47:50 51°14.769 2°54.627 333.7 11.4 326 9.5
2009-09-08 06:47:56 51°14.785 2°54.61 333.7 11.3 326 9.2
2009-09-08 06:48:01 51°14.798 2°54.596 333.6 11.4 326 9.1
2009-09-08 06:48:06 51°14.811 2°54.582 333.2 11.4 326 9.2
2009-09-08 06:48:10 51°14.822 2°54.571 333.4 11.3 327 9.1
2009-09-08 06:48:16 51°14.837 2°54.555 334 11.3 327 9.2
2009-09-08 06:48:21 51°14.851 2°54.541 334.2 11.3 328 9.4
2009-09-08 06:48:26 51°14.864 2°54.528 334.7 11.3 328 9.2
2009-09-08 06:48:30 51°14.875 2°54.518 334.8 11.3 328 9
2009-09-08 06:48:36 51°14.89 2°54.501 334.5 11.3 327 9
2009-09-08 06:48:41 51°14.904 2°54.488 334.2 11.3 328 9
2009-09-08 06:48:46 51°14.917 2°54.475 334.5 11.2 328 9
2009-09-08 06:48:51 51°14.93 2°54.461 334.3 11.2 327 9.1
2009-09-08 06:48:56 51°14.943 2°54.448 334.2 11.3 328 8.7
2009-09-08 06:49:01 51°14.956 2°54.435 334.2 11.2 328 9.5
2009-09-08 06:49:06 51°14.97 2°54.422 334.4 11.2 328 9.8
2009-09-08 06:49:11 51°14.983 2°54.409 334.6 11.3 328 10
2009-09-08 06:49:16 51°14.996 2°54.396 334.6 11.3 328 10
2009-09-08 06:49:21 51°15.01 2°54.382 334.3 11.3 328 10
2009-09-08 06:49:26 51°15.023 2°54.369 334.3 11.3 328 10.1
2009-09-08 06:49:31 51°15.036 2°54.356 334.2 11.3 328 10.1
2009-09-08 06:49:36 51°15.05 2°54.343 334.3 11.3 328 10.1
2009-09-08 06:49:41 51°15.063 2°54.33 334.3 11.3 328 10.2
2009-09-08 06:49:46 51°15.077 2°54.316 334 11.4 328 10.2
2009-09-08 06:49:51 51°15.09 2°54.303 333.9 11.4 329 10.2
2009-09-08 06:49:56 51°15.103 2°54.29 334.3 11.4 329 10.2
2009-09-08 06:50:01 51°15.117 2°54.277 334.7 11.4 329 10.2
2009-09-08 06:50:06 51°15.131 2°54.265 334.9 11.4 330 10.2
2009-09-08 06:50:10 51°15.141 2°54.254 334.9 11.3 329 10.2
2009-09-08 06:50:16 51°15.158 2°54.239 334.7 11.4 329 10.3
2009-09-08 06:50:21 51°15.171 2°54.225 334.7 11.4 329 10.3
2009-09-08 06:50:26 51°15.185 2°54.212 334.7 11.4 329 10.3
2009-09-08 06:50:30 51°15.195 2°54.202 334.7 11.4 329 10.3
2009-09-08 06:50:36 51°15.212 2°54.186 334.4 11.4 329 10.3
2009-09-08 06:50:41 51°15.225 2°54.173 334.7 11.4 329 10.3
2009-09-08 06:50:46 51°15.238 2°54.16 334.6 11.3 328 10.3
2009-09-08 06:50:51 51°15.252 2°54.147 334.2 11.3 328 10.5
2009-09-08 06:50:56 51°15.265 2°54.134 334.4 11.3 329 10.3
2009-09-08 06:51:01 51°15.279 2°54.12 334.5 11.4 328 10.3
2009-09-08 06:51:06 51°15.292 2°54.107 334.4 11.3 328 10.2
2009-09-08 06:51:11 51°15.305 2°54.094 334.4 11.3 328 10.3
2009-09-08 06:51:16 51°15.319 2°54.081 334.7 11.3 329 10.5
2009-09-08 06:51:21 51°15.333 2°54.068 335.1 11.4 329 10.6
2009-09-08 06:51:26 51°15.346 2°54.056 335.2 11.3 329 10.5
2009-09-08 06:51:31 51°15.36 2°54.042 335.2 11.4 328 10.6
2009-09-08 06:51:36 51°15.373 2°54.029 334.8 11.4 329 10.6
2009-09-08 06:51:41 51°15.386 2°54.016 335 11.4 329 10.6
2009-09-08 06:51:46 51°15.4 2°54.004 335.8 11.4 330 10.5
2009-09-08 06:51:51 51°15.414 2°53.991 336.1 11.4 329 10.6
2009-09-08 06:51:56 51°15.428 2°53.979 336.1 11.4 330 10.6
2009-09-08 06:52:01 51°15.442 2°53.966 336.2 11.4 330 10.5
2009-09-08 06:52:06 51°15.455 2°53.954 336.6 11.4 330 10.6
2009-09-08 06:52:11 51°15.469 2°53.941 336.6 11.5 330 10.7
2009-09-08 06:52:16 51°15.483 2°53.928 336.5 11.5 330 10.6
2009-09-08 06:52:21 51°15.497 2°53.916 336.6 11.5 331 10.6
2009-09-08 06:52:26 51°15.511 2°53.903 336.9 11.5 331 10.7
2009-09-08 06:52:30 51°15.522 2°53.893 337.2 11.5 331 10.6
2009-09-08 06:52:36 51°15.538 2°53.878 336.8 11.5 330 10.4
2009-09-08 06:52:41 51°15.552 2°53.865 336.3 11.5 330 10.4
2009-09-08 06:52:46 51°15.566 2°53.852 336.3 11.5 330 10.5
2009-09-08 06:52:50 51°15.577 2°53.842 336.5 11.5 330 10.3
2009-09-08 06:52:56 51°15.593 2°53.826 336.8 11.5 330 10.4
2009-09-08 06:53:01 51°15.607 2°53.813 336.5 11.5 329 10.3
2009-09-08 06:53:06 51°15.621 2°53.8 336.2 11.5 329 10.4
2009-09-08 06:53:11 51°15.634 2°53.787 336.4 11.5 329 10.5
2009-09-08 06:53:16 51°15.648 2°53.775 336.8 11.5 329 10.4
2009-09-08 06:53:21 51°15.662 2°53.761 336.3 11.5 328 10.5
2009-09-08 06:53:26 51°15.675 2°53.748 335.6 11.5 329 10.5
2009-09-08 06:53:31 51°15.689 2°53.735 335.6 11.5 329 10.4
2009-09-08 06:53:36 51°15.703 2°53.721 336.1 11.5 329 10.7
2009-09-08 06:53:41 51°15.716 2°53.708 336 11.6 328 10.6
2009-09-08 06:53:46 51°15.73 2°53.695 336 11.5 329 10.6
2009-09-08 06:53:50 51°15.741 2°53.685 336.5 11.5 329 10.8
2009-09-08 06:53:56 51°15.757 2°53.669 336.6 11.5 329 10.7
2009-09-08 06:54:01 51°15.771 2°53.656 336.4 11.5 329 10.7
2009-09-08 06:54:06 51°15.785 2°53.643 336.2 11.6 329 10.8
2009-09-08 06:54:11 51°15.799 2°53.63 336.5 11.6 329 10.7
2009-09-08 06:54:16 51°15.812 2°53.617 336.2 11.5 329 10.9
2009-09-08 06:54:21 51°15.826 2°53.603 336 11.5 329 10.8
2009-09-08 06:54:26 51°15.84 2°53.59 335.8 11.5 329 10.8
2009-09-08 06:54:31 51°15.853 2°53.577 335.9 11.5 329 11
2009-09-08 06:54:36 51°15.867 2°53.564 336.4 11.6 329 10.8
2009-09-08 06:54:41 51°15.881 2°53.551 336.5 11.5 329 10.9
2009-09-08 06:54:46 51°15.895 2°53.538 336.5 11.6 329 11
2009-09-08 06:54:50 51°15.906 2°53.527 336.2 11.6 329 11
2009-09-08 06:54:56 51°15.922 2°53.511 336.1 11.6 329 11.1
2009-09-08 06:55:01 51°15.936 2°53.498 336 11.6 329 10.9
2009-09-08 06:55:06 51°15.95 2°53.485 336.1 11.6 329 11
2009-09-08 06:55:10 51°15.961 2°53.475 336 11.6 329 11.2
2009-09-08 06:55:16 51°15.977 2°53.459 336.2 11.6 329 11.1
2009-09-08 06:55:21 51°15.991 2°53.445 335.6 11.5 328 11.1
2009-09-08 06:55:26 51°16.004 2°53.432 335.1 11.5 328 11
2009-09-08 06:55:31 51°16.018 2°53.418 334.7 11.6 328 11.1
2009-09-08 06:55:36 51°16.032 2°53.405 334.2 11.6 328 11.2
2009-09-08 06:55:41 51°16.045 2°53.391 334 11.6 328 11.1
2009-09-08 06:55:46 51°16.059 2°53.377 334.1 11.6 328 11.2
2009-09-08 06:55:51 51°16.072 2°53.364 334.9 11.6 329 11.2
2009-09-08 06:55:56 51°16.086 2°53.35 335.3 11.6 329 11.2
2009-09-08 06:56:01 51°16.1 2°53.337 335.6 11.6 329 11.3
2009-09-08 06:56:06 51°16.113 2°53.324 335.8 11.6 329 11.3
2009-09-08 06:56:11 51°16.127 2°53.311 335.8 11.6 329 11.3
2009-09-08 06:56:16 51°16.141 2°53.298 335.8 11.6 329 11.3
2009-09-08 06:56:21 51°16.155 2°53.285 335.8 11.6 329 11.3
2009-09-08 06:56:26 51°16.169 2°53.272 335.8 11.6 329 11.3
2009-09-08 06:56:31 51°16.182 2°53.259 335.8 11.6 329 11.4
2009-09-08 06:56:36 51°16.196 2°53.246 335.8 11.6 329 11.4
2009-09-08 06:56:41 51°16.21 2°53.233 335.9 11.6 329 11.4
2009-09-08 06:56:46 51°16.224 2°53.22 336.1 11.6 330 11.4
2009-09-08 06:56:51 51°16.238 2°53.207 336.1 11.6 329 11.4
2009-09-08 06:56:56 51°16.251 2°53.194 335.9 11.6 329 11.4
2009-09-08 06:57:01 51°16.265 2°53.181 335.8 11.6 329 11.4
2009-09-08 06:57:06 51°16.279 2°53.168 335.9 11.6 329 11.4
2009-09-08 06:57:11 51°16.293 2°53.154 335.9 11.6 329 11.5
2009-09-08 06:57:16 51°16.307 2°53.141 335.9 11.6 329 11.4
2009-09-08 06:57:21 51°16.321 2°53.128 335.9 11.6 329 11.4
2009-09-08 06:57:26 51°16.335 2°53.115 335.7 11.6 329 11.4
2009-09-08 06:57:31 51°16.348 2°53.102 335.5 11.6 329 11.5
2009-09-08 06:57:36 51°16.362 2°53.088 335.5 11.6 329 11.4
2009-09-08 06:57:41 51°16.376 2°53.075 335.5 11.6 329 11.4
2009-09-08 06:57:46 51°16.39 2°53.062 335.6 11.6 329 11.4
2009-09-08 06:57:51 51°16.404 2°53.049 335.6 11.6 329 11.4
2009-09-08 06:57:56 51°16.418 2°53.035 335.6 11.7 329 11.4
2009-09-08 06:58:01 51°16.431 2°53.023 335.8 11.6 330 11.3
2009-09-08 06:58:06 51°16.445 2°53.009 335.8 11.6 329 11.3
2009-09-08 06:58:11 51°16.459 2°52.996 335.1 11.6 328 11.4
2009-09-08 06:58:16 51°16.473 2°52.982 334.7 11.6 328 11.3
2009-09-08 06:58:21 51°16.486 2°52.969 334.7 11.6 328 11.3
2009-09-08 06:58:26 51°16.5 2°52.956 335.2 11.6 330 11.3
2009-09-08 06:58:31 51°16.514 2°52.943 335.5 11.6 330 11.2
2009-09-08 06:58:36 51°16.528 2°52.93 335.9 11.6 330 11.2
2009-09-08 06:58:41 51°16.542 2°52.917 336.1 11.6 330 11.3
2009-09-08 06:58:46 51°16.555 2°52.904 335.8 11.6 329 11.2
2009-09-08 06:58:50 51°16.567 2°52.893 335.8 11.6 329 11.1
2009-09-08 06:58:56 51°16.583 2°52.878 335.6 11.6 329 11.1
2009-09-08 06:59:01 51°16.597 2°52.865 335.6 11.6 329 11
2009-09-08 06:59:06 51°16.611 2°52.851 335.6 11.6 329 10.9
2009-09-08 06:59:10 51°16.622 2°52.841 335.4 11.6 329 10.8
2009-09-08 06:59:16 51°16.638 2°52.825 335.7 11.6 330 10.7
2009-09-08 06:59:21 51°16.652 2°52.812 335.4 11.6 328 10.6
2009-09-08 06:59:26 51°16.666 2°52.799 334.7 11.6 328 10.5
2009-09-08 06:59:30 51°16.677 2°52.788 334.2 11.6 327 10.4
2009-09-08 06:59:36 51°16.693 2°52.771 333.9 11.6 328 10.2
2009-09-08 06:59:41 51°16.707 2°52.758 334.3 11.6 328 10.1
2009-09-08 06:59:46 51°16.721 2°52.744 334.7 11.6 329 9.9
2009-09-08 06:59:51 51°16.734 2°52.731 334.8 11.6 329 9.8
2009-09-08 06:59:56 51°16.748 2°52.717 335 11.6 329 9.5
2009-09-08 07:00:01 51°16.762 2°52.704 334.8 11.5 330 9.2
2009-09-08 07:00:06 51°16.776 2°52.692 334.8 11.5 330 9.2
2009-09-08 07:00:11 51°16.79 2°52.681 337.5 11.3 334 9.2
2009-09-08 07:00:16 51°16.804 2°52.67 339.2 11.4 334 9.3
2009-09-08 07:00:21 51°16.818 2°52.66 340.9 11.3 338 9.1
2009-09-08 07:00:26 51°16.833 2°52.651 342.6 11.3 337 8.9
2009-09-08 07:00:31 51°16.847 2°52.641 343.4 11.2 339 9
2009-09-08 07:00:36 51°16.862 2°52.633 344.6 11.2 340 8.9
2009-09-08 07:00:41 51°16.877 2°52.625 345.4 11.2 340 9
2009-09-08 07:00:46 51°16.891 2°52.617 346.6 11.3 342 9.1
2009-09-08 07:00:51 51°16.906 2°52.609 347 11.3 341 9.2
2009-09-08 07:00:56 51°16.921 2°52.602 347.6 11.2 343 9.3
2009-09-08 07:01:01 51°16.936 2°52.594 348.2 11.2 342 9.4
2009-09-08 07:01:06 51°16.95 2°52.587 348.3 11.2 344 9.3
2009-09-08 07:01:11 51°16.965 2°52.58 348.9 11.2 343 9.4
2009-09-08 07:01:16 51°16.98 2°52.573 349 11.2 344 9.3
2009-09-08 07:01:21 51°16.995 2°52.566 349.4 11.2 344 9.2
2009-09-08 07:01:26 51°17.01 2°52.56 349.6 11.2 344 9.2
2009-09-08 07:01:31 51°17.025 2°52.553 349.8 11.2 344 8.9
2009-09-08 07:01:36 51°17.04 2°52.547 349.9 11.1 344 9
2009-09-08 07:01:41 51°17.055 2°52.54 349.9 11.2 344 9.1
2009-09-08 07:01:46 51°17.07 2°52.533 349.9 11.2 344 9.1
2009-09-08 07:01:51 51°17.085 2°52.527 349.7 11.2 345 9.2
2009-09-08 07:01:56 51°17.1 2°52.519 349.5 11.1 345 9.1
2009-09-08 07:02:01 51°17.115 2°52.515 352.4 11.1 350 9.2
2009-09-08 07:02:06 51°17.13 2°52.509 353.6 11.1 347 9.2
2009-09-08 07:02:11 51°17.145 2°52.506 354.6 11.1 351 9.3
2009-09-08 07:02:16 51°17.16 2°52.502 356.2 11.1 350 9.2
2009-09-08 07:02:21 51°17.176 2°52.499 356.9 11 352 9.3
2009-09-08 07:02:26 51°17.191 2°52.495 357.6 11 353 9.3
2009-09-08 07:02:31 51°17.206 2°52.492 358.5 11 353 9.3
2009-09-08 07:02:36 51°17.221 2°52.49 359.2 11 354 9.4
2009-09-08 07:02:41 51°17.237 2°52.487 359.5 11.1 354 9.4
2009-09-08 07:02:46 51°17.252 2°52.485 359.9 11.1 355 9.5
2009-09-08 07:02:51 51°17.267 2°52.482 0.4 11.1 355 9.4
2009-09-08 07:02:56 51°17.282 2°52.48 0.8 11 355 9.4
2009-09-08 07:03:01 51°17.298 2°52.478 0.7 11 354 9.6
2009-09-08 07:03:06 51°17.313 2°52.476 0.3 11 355 9.5
2009-09-08 07:03:11 51°17.328 2°52.473 0.6 11 355 9.7
2009-09-08 07:03:16 51°17.343 2°52.472 0.6 11.1 355 9.6
2009-09-08 07:03:21 51°17.359 2°52.469 0.7 11.1 354 9.6
2009-09-08 07:03:26 51°17.374 2°52.467 0.5 11.1 355 9.6
2009-09-08 07:03:31 51°17.389 2°52.464 0.5 11.1 354 9.7
2009-09-08 07:03:36 51°17.405 2°52.462 0.5 11 354 9.7
2009-09-08 07:03:41 51°17.42 2°52.459 0.1 11.1 354 9.6
2009-09-08 07:03:46 51°17.435 2°52.457 0.4 11 355 9.8
2009-09-08 07:03:50 51°17.447 2°52.455 0.7 11 354 9.7
2009-09-08 07:03:56 51°17.466 2°52.452 0.6 11.1 354 9.8
2009-09-08 07:04:01 51°17.481 2°52.45 0.5 11.1 354 9.6
2009-09-08 07:04:06 51°17.496 2°52.448 0.5 11.1 354 9.7
2009-09-08 07:04:10 51°17.509 2°52.446 0.3 11.1 354 9.7
2009-09-08 07:04:16 51°17.527 2°52.443 0.1 11.2 354 9.7
2009-09-08 07:04:21 51°17.542 2°52.44 0.1 11.1 354 9.7
2009-09-08 07:04:26 51°17.558 2°52.438 0.1 11.1 355 9.7
2009-09-08 07:04:31 51°17.573 2°52.436 0.9 11.1 355 9.8
2009-09-08 07:04:36 51°17.588 2°52.434 1.2 11.1 355 9.7
2009-09-08 07:04:41 51°17.604 2°52.431 0.8 11.2 353 9.8
2009-09-08 07:04:46 51°17.619 2°52.429 0.1 11.1 355 9.7
2009-09-08 07:04:51 51°17.634 2°52.427 0.8 11.1 355 9.7
2009-09-08 07:04:56 51°17.65 2°52.425 1 11.1 356 9.7
2009-09-08 07:05:01 51°17.665 2°52.423 1.6 11.2 354 9.7
2009-09-08 07:05:06 51°17.681 2°52.42 1.1 11.2 355 9.8
2009-09-08 07:05:11 51°17.696 2°52.419 1.7 11.1 356 9.6
2009-09-08 07:05:16 51°17.712 2°52.416 1.8 11.1 355 9.6
2009-09-08 07:05:21 51°17.727 2°52.415 1.6 11.2 355 9.8
2009-09-08 07:05:26 51°17.742 2°52.413 1.5 11.2 355 9.8
2009-09-08 07:05:31 51°17.758 2°52.411 1.7 11.1 356 9.7
2009-09-08 07:05:36 51°17.773 2°52.409 2 11.2 356 9.6
2009-09-08 07:05:41 51°17.789 2°52.407 2 11.2 356 9.7
2009-09-08 07:05:46 51°17.804 2°52.405 2.1 11.1 356 9.8
2009-09-08 07:05:51 51°17.819 2°52.403 2.1 11.1 355 9.8
2009-09-08 07:05:56 51°17.835 2°52.401 2 11.1 355 9.7
2009-09-08 07:06:01 51°17.85 2°52.399 1.9 11.1 355 9.8
2009-09-08 07:06:06 51°17.866 2°52.397 1.5 11.1 355 9.8
2009-09-08 07:06:11 51°17.881 2°52.395 1.4 11.1 355 9.8
2009-09-08 07:06:16 51°17.897 2°52.393 1 11.1 354 9.7
2009-09-08 07:06:21 51°17.912 2°52.391 1.1 11.2 354 9.9
2009-09-08 07:06:26 51°17.928 2°52.389 1 11.2 355 9.8
2009-09-08 07:06:31 51°17.943 2°52.386 1.2 11.2 355 9.8
2009-09-08 07:06:36 51°17.958 2°52.384 1.3 11.2 355 9.6
2009-09-08 07:06:41 51°17.974 2°52.382 1.5 11.2 355 9.8
2009-09-08 07:06:46 51°17.989 2°52.379 1.2 11.3 354 9.9
2009-09-08 07:06:51 51°18.005 2°52.377 0.9 11.2 354 9.8
2009-09-08 07:06:56 51°18.02 2°52.374 0.8 11.1 354 9.9
2009-09-08 07:07:01 51°18.036 2°52.372 0.8 11.3 354 10
2009-09-08 07:07:06 51°18.051 2°52.368 0.4 11.2 353 9.9
2009-09-08 07:07:11 51°18.066 2°52.366 0.3 11.2 354 9.9
2009-09-08 07:07:16 51°18.082 2°52.363 0.3 11.2 353 10
2009-09-08 07:07:21 51°18.097 2°52.36 0.1 11.2 353 10
2009-09-08 07:07:26 51°18.113 2°52.357 359.9 11.2 353 9.9
2009-09-08 07:07:31 51°18.128 2°52.354 359.9 11.2 353 10
2009-09-08 07:07:36 51°18.143 2°52.351 359.9 11.2 353 9.9
2009-09-08 07:07:41 51°18.159 2°52.348 -999 11.2 354 10
2009-09-08 07:07:46 51°18.174 2°52.345 0.1 11.2 353 10
2009-09-08 07:07:51 51°18.19 2°52.342 0.1 11.3 354 10
2009-09-08 07:07:56 51°18.205 2°52.339 0.1 11.3 354 10.2
2009-09-08 07:08:01 51°18.221 2°52.336 -999 11.2 353 10
2009-09-08 07:08:06 51°18.236 2°52.333 359.9 11.2 353 10.1
2009-09-08 07:08:11 51°18.252 2°52.33 -999 11.2 353 10.1
2009-09-08 07:08:16 51°18.267 2°52.327 359.5 11.3 353 10.3
2009-09-08 07:08:21 51°18.283 2°52.324 359.5 11.3 354 10.1
2009-09-08 07:08:26 51°18.298 2°52.322 359.8 11.3 353 10.1
2009-09-08 07:08:31 51°18.314 2°52.319 359.5 11.3 353 10.4
2009-09-08 07:08:36 51°18.33 2°52.316 359.4 11.3 353 10.5
2009-09-08 07:08:41 51°18.345 2°52.313 359.4 11.3 353 10.4
2009-09-08 07:08:46 51°18.36 2°52.31 359.6 11.3 353 10.5
2009-09-08 07:08:51 51°18.376 2°52.306 359.6 11.3 353 10.4
2009-09-08 07:08:56 51°18.391 2°52.303 359.6 11.3 353 10.9
2009-09-08 07:09:01 51°18.407 2°52.3 359.5 11.4 353 10.5
2009-09-08 07:09:06 51°18.422 2°52.297 359.4 11.3 353 10.5
2009-09-08 07:09:11 51°18.438 2°52.293 359.4 11.3 353 10.6
2009-09-08 07:09:16 51°18.453 2°52.29 359.4 11.3 353 10.6
2009-09-08 07:09:21 51°18.469 2°52.287 359.5 11.3 353 10.7
2009-09-08 07:09:26 51°18.484 2°52.284 359.5 11.2 353 10.7
2009-09-08 07:09:31 51°18.5 2°52.281 359.5 11.3 353 10.8
2009-09-08 07:09:36 51°18.515 2°52.278 359.5 11.3 353 10.7
2009-09-08 07:09:41 51°18.531 2°52.274 359.3 11.3 352 10.7
2009-09-08 07:09:46 51°18.546 2°52.271 358.9 11.3 352 10.9
2009-09-08 07:09:51 51°18.562 2°52.268 358.7 11.3 353 11
2009-09-08 07:09:56 51°18.578 2°52.265 359.3 11.3 353 10.9
2009-09-08 07:10:01 51°18.593 2°52.262 359.4 11.3 353 11
2009-09-08 07:10:06 51°18.609 2°52.259 359.8 11.3 353 11.1
2009-09-08 07:10:11 51°18.624 2°52.256 359.8 11.4 353 11.1
2009-09-08 07:10:16 51°18.64 2°52.252 359.8 11.3 353 11.2
2009-09-08 07:10:21 51°18.655 2°52.249 359.8 11.3 353 11.3
2009-09-08 07:10:26 51°18.671 2°52.246 359.5 11.4 353 11.4
2009-09-08 07:10:31 51°18.686 2°52.243 359.5 11.3 353 11.4
2009-09-08 07:10:36 51°18.702 2°52.239 359.2 11.3 353 11.5
2009-09-08 07:10:41 51°18.717 2°52.236 359.4 11.3 353 11.5
2009-09-08 07:10:46 51°18.733 2°52.233 359.6 11.3 353 11.5
2009-09-08 07:10:51 51°18.749 2°52.23 359.3 11.3 352 11.7
2009-09-08 07:10:56 51°18.764 2°52.226 359.2 11.3 352 11.9
2009-09-08 07:11:01 51°18.78 2°52.224 359.5 11.3 353 11.9
2009-09-08 07:11:06 51°18.795 2°52.221 359.7 11.3 353 11.9
2009-09-08 07:11:11 51°18.811 2°52.218 359.8 11.3 353 11.9
2009-09-08 07:11:16 51°18.826 2°52.215 359.5 11.2 352 12.1
2009-09-08 07:11:21 51°18.842 2°52.211 359.4 11.2 353 12.2
2009-09-08 07:11:26 51°18.858 2°52.208 359.7 11.3 352 12.2
2009-09-08 07:11:31 51°18.873 2°52.205 359.4 11.3 352 12.4
2009-09-08 07:11:36 51°18.889 2°52.201 359.2 11.3 352 12.5
2009-09-08 07:11:41 51°18.904 2°52.198 359.4 11.4 353 12.6
2009-09-08 07:11:46 51°18.92 2°52.195 359.3 11.3 353 12.7
2009-09-08 07:11:51 51°18.936 2°52.191 358.8 11.4 351 12.7
2009-09-08 07:11:56 51°18.951 2°52.188 358.3 11.3 352 12.8
2009-09-08 07:12:01 51°18.966 2°52.184 358.1 11.3 351 12.8
2009-09-08 07:12:06 51°18.982 2°52.18 357.9 11.3 351 12.8
2009-09-08 07:12:11 51°18.997 2°52.175 357.4 11.2 350 13
2009-09-08 07:12:16 51°19.013 2°52.171 357.2 11.3 350 13
2009-09-08 07:12:21 51°19.028 2°52.167 357.1 11.3 350 13.1
2009-09-08 07:12:26 51°19.044 2°52.163 357 11.3 351 13.1
2009-09-08 07:12:31 51°19.059 2°52.16 357.2 11.3 351 13.1
2009-09-08 07:12:36 51°19.075 2°52.155 357.3 11.3 351 13.4
2009-09-08 07:12:41 51°19.09 2°52.151 357.4 11.3 351 13.5
2009-09-08 07:12:46 51°19.105 2°52.147 357.6 11.3 351 13.5
2009-09-08 07:12:51 51°19.121 2°52.144 357.9 11.3 352 13.6
2009-09-08 07:12:56 51°19.136 2°52.14 357.7 11.3 351 13.8
2009-09-08 07:13:01 51°19.152 2°52.136 357.6 11.2 351 13.8
2009-09-08 07:13:06 51°19.167 2°52.132 357.7 11.3 351 13.9
2009-09-08 07:13:11 51°19.183 2°52.128 357.8 11.3 351 14
2009-09-08 07:13:16 51°19.198 2°52.124 357.9 11.3 351 14.1
2009-09-08 07:13:21 51°19.214 2°52.121 357.9 11.3 352 14.2
2009-09-08 07:13:26 51°19.229 2°52.117 358.2 11.3 351 14.2
2009-09-08 07:13:31 51°19.245 2°52.113 358 11.3 352 14.2
2009-09-08 07:13:36 51°19.26 2°52.11 358.7 11.3 352 14.2
2009-09-08 07:13:41 51°19.276 2°52.107 359.6 11.3 353 14.3
2009-09-08 07:13:46 51°19.291 2°52.103 358.8 11.3 351 14.3
2009-09-08 07:13:51 51°19.307 2°52.1 358.9 11.2 353 14.4
2009-09-08 07:13:56 51°19.322 2°52.097 359.5 11.3 353 14.6
2009-09-08 07:14:01 51°19.338 2°52.094 0.2 11.3 353 14.5
2009-09-08 07:14:06 51°19.353 2°52.091 0.1 11.3 353 14.6
2009-09-08 07:14:11 51°19.369 2°52.088 0.1 11.2 354 14.5
2009-09-08 07:14:16 51°19.384 2°52.086 0.8 11.2 354 14.6
2009-09-08 07:14:21 51°19.4 2°52.083 1.1 11.2 354 14.6
2009-09-08 07:14:26 51°19.415 2°52.08 1.1 11.3 354 14.6
2009-09-08 07:14:31 51°19.431 2°52.077 1.1 11.3 353 14.7
2009-09-08 07:14:36 51°19.446 2°52.074 0.6 11.2 354 14.7
2009-09-08 07:14:41 51°19.462 2°52.069 358 11.4 348 14.7
2009-09-08 07:14:46 51°19.477 2°52.064 356.6 11.3 349 14.6
2009-09-08 07:14:50 51°19.489 2°52.06 355.1 11.3 346 14.7
2009-09-08 07:14:56 51°19.507 2°52.052 353.6 11.3 345 14.8
2009-09-08 07:15:01 51°19.523 2°52.046 352.7 11.4 346 14.8
2009-09-08 07:15:06 51°19.538 2°52.038 351.9 11.4 343 14.9
2009-09-08 07:15:10 51°19.55 2°52.033 350.8 11.4 344 14.9
2009-09-08 07:15:16 51°19.568 2°52.024 350.1 11.5 342 14.9
2009-09-08 07:15:21 51°19.583 2°52.016 349.6 11.5 343 14.9
2009-09-08 07:15:26 51°19.599 2°52.008 349.2 11.4 342 15.1
2009-09-08 07:15:31 51°19.614 2°52.001 348.8 11.5 342 15.1
2009-09-08 07:15:36 51°19.629 2°51.993 348.7 11.5 341 15
2009-09-08 07:15:41 51°19.644 2°51.985 348.5 11.5 343 14.9
2009-09-08 07:15:46 51°19.659 2°51.977 348.7 11.5 342 15
2009-09-08 07:15:51 51°19.675 2°51.97 349.1 11.6 342 14.9
2009-09-08 07:15:56 51°19.69 2°51.961 348.7 11.6 342 14.9
2009-09-08 07:16:01 51°19.705 2°51.953 348.7 11.5 342 14.9
2009-09-08 07:16:06 51°19.72 2°51.945 348.7 11.6 342 14.8
2009-09-08 07:16:11 51°19.735 2°51.937 348.5 11.6 342 14.8
2009-09-08 07:16:16 51°19.75 2°51.928 348.4 11.5 341 14.8
2009-09-08 07:16:21 51°19.765 2°51.921 348.7 11.5 342 14.8
2009-09-08 07:16:26 51°19.781 2°51.912 348.8 11.6 342 14.9
2009-09-08 07:16:31 51°19.796 2°51.904 349.1 11.6 342 14.8
2009-09-08 07:16:36 51°19.811 2°51.896 349.1 11.5 342 14.9
2009-09-08 07:16:41 51°19.826 2°51.888 349.3 11.5 342 14.9
2009-09-08 07:16:46 51°19.841 2°51.88 349.3 11.5 342 14.9
2009-09-08 07:16:51 51°19.856 2°51.872 349.2 11.5 342 14.8
2009-09-08 07:16:56 51°19.871 2°51.864 349.2 11.5 341 14.9
2009-09-08 07:17:01 51°19.887 2°51.856 348.8 11.5 342 14.9
2009-09-08 07:17:06 51°19.902 2°51.848 348.7 11.6 342 14.7
2009-09-08 07:17:11 51°19.917 2°51.84 348.9 11.5 342 14.6
2009-09-08 07:17:16 51°19.932 2°51.832 348.9 11.5 341 14.7
2009-09-08 07:17:21 51°19.947 2°51.824 348.8 11.5 342 14.6
2009-09-08 07:17:26 51°19.963 2°51.816 349 11.5 342 14.4
2009-09-08 07:17:31 51°19.978 2°51.808 349 11.5 342 14.5
2009-09-08 07:17:36 51°19.993 2°51.8 348.6 11.6 341 13.6
2009-09-08 07:17:41 51°20.008 2°51.792 348.3 11.5 341 12.8
2009-09-08 07:17:46 51°20.023 2°51.783 347.3 11.5 339 12.9
2009-09-08 07:17:51 51°20.039 2°51.775 347.2 11.5 341 13.1
2009-09-08 07:17:56 51°20.053 2°51.765 347.5 11.6 341 13.1
2009-09-08 07:18:01 51°20.068 2°51.757 348.5 11.5 342 13.1
2009-09-08 07:18:06 51°20.083 2°51.749 348.6 11.5 341 13.1
2009-09-08 07:18:11 51°20.099 2°51.741 349.2 11.5 342 13
2009-09-08 07:18:16 51°20.114 2°51.733 349.3 11.6 342 12.9
2009-09-08 07:18:21 51°20.129 2°51.726 349.6 11.6 342 12.7
2009-09-08 07:18:26 51°20.145 2°51.718 349.7 11.6 342 12.5
2009-09-08 07:18:31 51°20.16 2°51.71 349.6 11.6 342 12.5
2009-09-08 07:18:36 51°20.175 2°51.702 349.4 11.6 342 12.6
2009-09-08 07:18:41 51°20.19 2°51.694 349.8 11.5 342 12.7
2009-09-08 07:18:46 51°20.205 2°51.686 349.8 11.6 342 12.7
2009-09-08 07:18:51 51°20.221 2°51.678 349.5 11.6 342 12.8
2009-09-08 07:18:56 51°20.236 2°51.67 349.2 11.6 342 12.5
2009-09-08 07:19:01 51°20.251 2°51.662 349.2 11.6 342 12.4
2009-09-08 07:19:06 51°20.267 2°51.654 349.5 11.7 342 12
2009-09-08 07:19:11 51°20.282 2°51.646 349.2 11.6 342 12.1
2009-09-08 07:19:16 51°20.297 2°51.638 349.1 11.6 342 12.3
2009-09-08 07:19:21 51°20.313 2°51.63 349.2 11.6 342 12.3
2009-09-08 07:19:26 51°20.328 2°51.622 349.2 11.7 342 12.4
2009-09-08 07:19:31 51°20.343 2°51.614 349.1 11.7 342 12.4
2009-09-08 07:19:36 51°20.359 2°51.606 349.6 11.6 342 12.5
2009-09-08 07:19:41 51°20.374 2°51.598 349.3 11.7 342 12.6
2009-09-08 07:19:46 51°20.39 2°51.59 349.6 11.6 341 12.6
2009-09-08 07:19:51 51°20.405 2°51.582 349 11.6 342 12.7
2009-09-08 07:19:56 51°20.421 2°51.574 349.2 11.7 342 12.9
2009-09-08 07:20:01 51°20.436 2°51.566 349.2 11.6 343 12.9
2009-09-08 07:20:06 51°20.451 2°51.558 349.8 11.6 342 12.9
2009-09-08 07:20:11 51°20.467 2°51.55 349.9 11.6 342 13.1
2009-09-08 07:20:16 51°20.482 2°51.542 349.4 11.7 342 13.2
2009-09-08 07:20:21 51°20.498 2°51.534 349.2 11.7 342 13.4
2009-09-08 07:20:26 51°20.513 2°51.527 349.2 11.7 342 13.4
2009-09-08 07:20:31 51°20.529 2°51.519 349.2 11.7 342 13.6
2009-09-08 07:20:36 51°20.544 2°51.511 349 11.7 342 13.8
2009-09-08 07:20:41 51°20.559 2°51.503 349 11.6 342 13.9
2009-09-08 07:20:46 51°20.575 2°51.494 349.2 11.7 342 14
2009-09-08 07:20:51 51°20.59 2°51.486 349.2 11.6 342 14.1
2009-09-08 07:20:56 51°20.606 2°51.479 349.6 11.6 342 14.5
2009-09-08 07:21:01 51°20.621 2°51.471 349.7 11.7 343 14.3
2009-09-08 07:21:06 51°20.637 2°51.463 349.7 11.8 343 14.5
2009-09-08 07:21:11 51°20.652 2°51.456 349.6 11.7 342 14.6
2009-09-08 07:21:16 51°20.668 2°51.448 349.4 11.7 342 14.8
2009-09-08 07:21:21 51°20.683 2°51.44 349.4 11.7 342 15
2009-09-08 07:21:26 51°20.699 2°51.432 349.4 11.7 342 15.1
2009-09-08 07:21:31 51°20.714 2°51.424 349.1 11.7 342 15.4
2009-09-08 07:21:36 51°20.73 2°51.416 349.1 11.7 342 15.6
2009-09-08 07:21:41 51°20.745 2°51.408 349.1 11.6 342 15.7
2009-09-08 07:21:46 51°20.76 2°51.4 349.3 11.7 342 16
2009-09-08 07:21:51 51°20.776 2°51.392 349.4 11.7 343 16
2009-09-08 07:21:56 51°20.792 2°51.385 349.4 11.7 343 16.3
2009-09-08 07:22:01 51°20.807 2°51.377 349.4 11.7 342 16.4
2009-09-08 07:22:06 51°20.823 2°51.369 349.3 11.7 342 16.5
2009-09-08 07:22:11 51°20.838 2°51.361 349.3 11.7 342 16.7
2009-09-08 07:22:16 51°20.853 2°51.353 349.4 11.7 342 16.8
2009-09-08 07:22:21 51°20.869 2°51.345 349.5 11.7 342 17
2009-09-08 07:22:26 51°20.884 2°51.337 349.2 11.7 342 17.1
2009-09-08 07:22:31 51°20.9 2°51.329 349.2 11.7 343 17.3
2009-09-08 07:22:36 51°20.916 2°51.321 349.2 11.8 342 17.6
2009-09-08 07:22:41 51°20.931 2°51.313 349.2 11.7 342 17.7
2009-09-08 07:22:46 51°20.946 2°51.305 349.3 11.7 342 17.9
2009-09-08 07:22:51 51°20.962 2°51.297 349.3 11.7 342 18.2
2009-09-08 07:22:56 51°20.977 2°51.29 349.2 11.7 342 18.3
2009-09-08 07:23:01 51°20.993 2°51.282 349.2 11.7 342 18.5
2009-09-08 07:23:06 51°21.008 2°51.273 349.1 11.7 342 18.8
2009-09-08 07:23:11 51°21.023 2°51.265 348.9 11.7 342 19.1
2009-09-08 07:23:16 51°21.039 2°51.257 349.1 11.6 342 19.3
2009-09-08 07:23:21 51°21.054 2°51.249 349.2 11.7 342 19.4
2009-09-08 07:23:26 51°21.069 2°51.241 349.1 11.7 343 19.6
2009-09-08 07:23:31 51°21.085 2°51.233 349.2 11.7 342 20
2009-09-08 07:23:36 51°21.1 2°51.225 349.4 11.6 342 20.2
2009-09-08 07:23:41 51°21.115 2°51.217 349.5 11.6 342 20.4
2009-09-08 07:23:46 51°21.131 2°51.209 349.6 11.6 342 20.7
2009-09-08 07:23:51 51°21.146 2°51.201 349.5 11.6 342 20.7
2009-09-08 07:23:56 51°21.161 2°51.193 348.7 11.6 341 20.9
2009-09-08 07:24:01 51°21.176 2°51.185 348 11.6 341 20.9
2009-09-08 07:24:06 51°21.191 2°51.176 347.7 11.5 341 21.2
2009-09-08 07:24:11 51°21.206 2°51.167 347.5 11.6 340 21.4
2009-09-08 07:24:16 51°21.222 2°51.159 347.5 11.6 340 21.5
2009-09-08 07:24:21 51°21.237 2°51.15 348.1 11.6 342 21.8
2009-09-08 07:24:26 51°21.252 2°51.142 348.6 11.6 341 22.1
2009-09-08 07:24:31 51°21.267 2°51.134 348.7 11.6 342 22
2009-09-08 07:24:36 51°21.282 2°51.126 349.2 11.6 342 22.1
2009-09-08 07:24:41 51°21.298 2°51.118 349.2 11.6 342 22.2
2009-09-08 07:24:46 51°21.313 2°51.111 349.5 11.5 342 22.3
2009-09-08 07:24:51 51°21.328 2°51.103 349.5 11.6 342 22.5
2009-09-08 07:24:56 51°21.344 2°51.094 349.2 11.6 342 22.5
2009-09-08 07:25:01 51°21.359 2°51.086 349.2 11.6 342 22.7
2009-09-08 07:25:06 51°21.374 2°51.078 349.4 11.6 342 22.6
2009-09-08 07:25:11 51°21.389 2°51.071 349.5 11.6 342 22.7
2009-09-08 07:25:16 51°21.404 2°51.063 349.6 11.6 342 22.5
2009-09-08 07:25:21 51°21.42 2°51.055 349.6 11.5 342 22.6
2009-09-08 07:25:26 51°21.435 2°51.046 349.2 11.5 341 22.8
2009-09-08 07:25:31 51°21.45 2°51.038 349.1 11.5 342 22.7
2009-09-08 07:25:36 51°21.465 2°51.03 349.2 11.5 341 22.8
2009-09-08 07:25:41 51°21.48 2°51.022 349.2 11.5 341 22.8
2009-09-08 07:25:46 51°21.495 2°51.014 349.2 11.5 341 22.6
2009-09-08 07:25:51 51°21.51 2°51.006 349 11.5 341 22.8
2009-09-08 07:25:56 51°21.525 2°50.997 348.8 11.5 341 22.7
2009-09-08 07:26:01 51°21.54 2°50.99 349.4 11.5 342 22.9
2009-09-08 07:26:06 51°21.555 2°50.982 349.8 11.5 342 22.8
2009-09-08 07:26:11 51°21.57 2°50.974 349.9 11.5 343 22.8
2009-09-08 07:26:16 51°21.586 2°50.966 349.5 11.5 342 22.9
2009-09-08 07:26:21 51°21.601 2°50.959 349.3 11.5 343 22.8
2009-09-08 07:26:26 51°21.616 2°50.951 349.8 11.4 342 22.8
2009-09-08 07:26:31 51°21.631 2°50.943 349.6 11.4 342 22.8
2009-09-08 07:26:36 51°21.646 2°50.935 349.3 11.4 342 23
2009-09-08 07:26:41 51°21.661 2°50.928 349.3 11.5 343 23
2009-09-08 07:26:46 51°21.677 2°50.92 349.4 11.5 343 23
2009-09-08 07:26:51 51°21.692 2°50.913 349.3 11.5 343 23.1
2009-09-08 07:26:56 51°21.707 2°50.905 349.2 11.5 343 23
2009-09-08 07:27:01 51°21.722 2°50.897 349.1 11.6 342 23.1
2009-09-08 07:27:06 51°21.737 2°50.889 348.9 11.5 342 23.1
2009-09-08 07:27:11 51°21.753 2°50.881 349.2 11.5 343 23
2009-09-08 07:27:16 51°21.768 2°50.874 349.3 11.6 342 22.8
2009-09-08 07:27:21 51°21.783 2°50.866 349 11.5 342 22.8
2009-09-08 07:27:26 51°21.798 2°50.858 348.8 11.5 343 22.6
2009-09-08 07:27:31 51°21.814 2°50.85 349.2 11.6 343 22.3
2009-09-08 07:27:36 51°21.829 2°50.843 349.4 11.6 343 22.3
2009-09-08 07:27:41 51°21.845 2°50.835 349.2 11.6 342 22.2
2009-09-08 07:27:46 51°21.86 2°50.827 348.4 11.6 341 22.1
2009-09-08 07:27:50 51°21.872 2°50.821 348.3 11.6 343 22.2
2009-09-08 07:27:56 51°21.89 2°50.811 348.7 11.7 342 22.1
2009-09-08 07:28:01 51°21.906 2°50.804 349.1 11.6 343 22
2009-09-08 07:28:06 51°21.921 2°50.796 349.3 11.6 343 22
2009-09-08 07:28:10 51°21.933 2°50.79 349.5 11.6 343 21.9
2009-09-08 07:28:16 51°21.952 2°50.781 349.5 11.6 343 21.9
2009-09-08 07:28:21 51°21.967 2°50.774 349.5 11.6 343 21.9
2009-09-08 07:28:26 51°21.982 2°50.766 349.7 11.6 343 21.8
2009-09-08 07:28:31 51°21.998 2°50.759 349.8 11.6 343 21.8
2009-09-08 07:28:36 51°22.013 2°50.751 349.8 11.6 343 21.7
2009-09-08 07:28:41 51°22.029 2°50.744 349.4 11.6 343 21.8
2009-09-08 07:28:46 51°22.044 2°50.736 349.2 11.6 343 21.9
2009-09-08 07:28:51 51°22.059 2°50.728 349.2 11.6 343 21.8
2009-09-08 07:28:56 51°22.075 2°50.72 349.4 11.6 343 21.6
2009-09-08 07:29:01 51°22.09 2°50.713 349.4 11.6 343 21.8
2009-09-08 07:29:06 51°22.105 2°50.705 349.4 11.6 343 21.7
2009-09-08 07:29:11 51°22.121 2°50.698 349.6 11.6 343 21.7
2009-09-08 07:29:16 51°22.136 2°50.69 349.5 11.6 342 21.9
2009-09-08 07:29:21 51°22.151 2°50.682 349.2 11.6 343 21.9
2009-09-08 07:29:26 51°22.167 2°50.674 349.4 11.7 343 22
2009-09-08 07:29:31 51°22.182 2°50.667 349.4 11.6 343 22.1
2009-09-08 07:29:36 51°22.197 2°50.659 349.6 11.6 343 22.1
2009-09-08 07:29:41 51°22.213 2°50.652 349.7 11.6 343 21.9
2009-09-08 07:29:46 51°22.228 2°50.644 349.7 11.6 343 21.9
2009-09-08 07:29:51 51°22.244 2°50.637 349.8 11.6 343 21.9
2009-09-08 07:29:56 51°22.259 2°50.629 349.9 11.6 343 21.7
2009-09-08 07:30:01 51°22.274 2°50.622 349.9 11.6 343 21.6
2009-09-08 07:30:06 51°22.29 2°50.614 349.7 11.6 343 21.7
2009-09-08 07:30:11 51°22.305 2°50.606 349.3 11.6 342 21.8
2009-09-08 07:30:16 51°22.32 2°50.598 349.2 11.6 343 22
2009-09-08 07:30:21 51°22.336 2°50.59 349.4 11.6 342 22.1
2009-09-08 07:30:26 51°22.351 2°50.583 349.6 11.6 343 21.9
2009-09-08 07:30:31 51°22.366 2°50.575 349.6 11.6 342 22
2009-09-08 07:30:36 51°22.382 2°50.569 349.7 11.6 344 21.9
2009-09-08 07:30:41 51°22.397 2°50.56 349.3 11.6 342 21.9
2009-09-08 07:30:46 51°22.412 2°50.552 348.7 11.6 342 21.7
2009-09-08 07:30:51 51°22.428 2°50.544 348.9 11.6 342 21.8
2009-09-08 07:30:56 51°22.443 2°50.537 349.1 11.6 343 21.5
2009-09-08 07:31:01 51°22.458 2°50.529 349.2 11.6 342 21.7
2009-09-08 07:31:06 51°22.473 2°50.521 349.4 11.6 343 21.8
2009-09-08 07:31:11 51°22.489 2°50.514 349.8 11.6 343 21.7
2009-09-08 07:31:16 51°22.504 2°50.506 349.3 11.6 342 21.7
2009-09-08 07:31:21 51°22.519 2°50.498 349.3 11.6 343 21.7
2009-09-08 07:31:26 51°22.535 2°50.491 349.3 11.6 342 21.7
2009-09-08 07:31:31 51°22.55 2°50.482 348.9 11.6 342 21.7
2009-09-08 07:31:36 51°22.565 2°50.475 349.3 11.5 342 21.8
2009-09-08 07:31:41 51°22.581 2°50.467 349.6 11.6 341 21.6
2009-09-08 07:31:46 51°22.596 2°50.457 347.6 11.6 339 21.3
2009-09-08 07:31:51 51°22.611 2°50.448 346.8 11.6 340 21
2009-09-08 07:31:56 51°22.626 2°50.438 346.1 11.6 337 20.8
2009-09-08 07:32:01 51°22.64 2°50.429 345.3 11.6 338 20.5
2009-09-08 07:32:06 51°22.655 2°50.419 345.2 11.6 337 20.6
2009-09-08 07:32:11 51°22.67 2°50.409 344.6 11.6 337 20.9
2009-09-08 07:32:16 51°22.685 2°50.399 344.3 11.6 337 21.3
2009-09-08 07:32:21 51°22.7 2°50.389 344 11.6 337 20.9
2009-09-08 07:32:26 51°22.715 2°50.379 344 11.6 337 20.3
2009-09-08 07:32:31 51°22.729 2°50.368 343.8 11.7 336 19.6
2009-09-08 07:32:36 51°22.744 2°50.358 343.8 11.6 337 19.4
2009-09-08 07:32:41 51°22.759 2°50.348 343.8 11.7 337 18.4
2009-09-08 07:32:46 51°22.774 2°50.337 343.6 11.7 336 18.1
2009-09-08 07:32:51 51°22.788 2°50.327 343.3 11.6 337 17.9
2009-09-08 07:32:56 51°22.803 2°50.316 343.6 11.6 336 17.1
2009-09-08 07:33:01 51°22.818 2°50.306 343.6 11.6 336 16.5
2009-09-08 07:33:06 51°22.833 2°50.296 343.6 11.6 337 15.3
2009-09-08 07:33:11 51°22.848 2°50.286 343.8 11.6 336 14.1
2009-09-08 07:33:16 51°22.862 2°50.276 344.1 11.6 336 13.2
2009-09-08 07:33:21 51°22.877 2°50.265 343.8 11.6 336 15
2009-09-08 07:33:26 51°22.892 2°50.255 343.7 11.6 337 15.6
2009-09-08 07:33:31 51°22.906 2°50.245 344.1 11.6 337 15.8
2009-09-08 07:33:36 51°22.921 2°50.235 344.5 11.6 337 15.1
2009-09-08 07:33:41 51°22.936 2°50.224 343.8 11.7 335 14.3
2009-09-08 07:33:46 51°22.951 2°50.214 343.2 11.6 337 12.2
2009-09-08 07:33:51 51°22.965 2°50.203 342.9 11.6 335 13.4
2009-09-08 07:33:56 51°22.98 2°50.192 342.2 11.6 336 14.7
2009-09-08 07:34:01 51°22.995 2°50.182 343.1 11.6 336 15.1
2009-09-08 07:34:06 51°23.01 2°50.172 343.5 11.7 337 15.4
2009-09-08 07:34:11 51°23.025 2°50.162 344 11.6 337 15.4
2009-09-08 07:34:16 51°23.04 2°50.152 344.1 11.6 337 14.6
2009-09-08 07:34:21 51°23.054 2°50.142 344.3 11.6 338 13.9
2009-09-08 07:34:26 51°23.069 2°50.132 344.5 11.6 337 14.8
2009-09-08 07:34:31 51°23.084 2°50.122 344.2 11.6 338 14.3
2009-09-08 07:34:36 51°23.099 2°50.112 344.2 11.6 337 15.3
2009-09-08 07:34:41 51°23.113 2°50.102 344.1 11.7 337 16.2
2009-09-08 07:34:46 51°23.128 2°50.091 344.1 11.6 337 16.2
2009-09-08 07:34:51 51°23.143 2°50.082 344.3 11.6 338 15.4
2009-09-08 07:34:56 51°23.158 2°50.072 344.5 11.6 338 13.3
2009-09-08 07:35:01 51°23.173 2°50.062 344.5 11.6 337 15
2009-09-08 07:35:06 51°23.188 2°50.052 344.2 11.6 337 15.8
2009-09-08 07:35:11 51°23.203 2°50.042 344.4 11.6 338 15.9
2009-09-08 07:35:16 51°23.218 2°50.033 344.7 11.6 338 15.5
2009-09-08 07:35:21 51°23.232 2°50.022 344.7 11.6 337 14.1
2009-09-08 07:35:26 51°23.247 2°50.012 344.6 11.6 337 16
2009-09-08 07:35:31 51°23.262 2°50.003 344.6 11.6 338 16.8
2009-09-08 07:35:36 51°23.277 2°49.993 344.6 11.6 338 17
2009-09-08 07:35:41 51°23.292 2°49.983 344.8 11.6 338 17
2009-09-08 07:35:46 51°23.307 2°49.972 344.8 11.6 338 17
2009-09-08 07:35:51 51°23.322 2°49.962 344.8 11.6 338 17
2009-09-08 07:35:56 51°23.336 2°49.952 344.6 11.6 337 17.1
2009-09-08 07:36:01 51°23.351 2°49.941 344.2 11.7 337 15.9
2009-09-08 07:36:06 51°23.366 2°49.931 344.1 11.6 337 16.3
2009-09-08 07:36:11 51°23.38 2°49.921 343.8 11.6 336 16.9
2009-09-08 07:36:16 51°23.395 2°49.911 344.2 11.6 338 18
2009-09-08 07:36:21 51°23.41 2°49.901 344.6 11.6 337 18.2
2009-09-08 07:36:26 51°23.425 2°49.892 344.7 11.6 338 18.5
2009-09-08 07:36:31 51°23.44 2°49.881 344.6 11.6 337 18.8
2009-09-08 07:36:36 51°23.455 2°49.872 344.2 11.6 338 18.8
2009-09-08 07:36:41 51°23.47 2°49.862 344.4 11.6 337 19
2009-09-08 07:36:46 51°23.485 2°49.852 344.5 11.6 337 19.4
2009-09-08 07:36:51 51°23.5 2°49.842 344.5 11.7 337 19.2
2009-09-08 07:36:56 51°23.515 2°49.832 344.3 11.6 337 19.6
2009-09-08 07:37:01 51°23.529 2°49.822 344.4 11.6 338 19.8
2009-09-08 07:37:06 51°23.544 2°49.812 344.5 11.6 337 20
2009-09-08 07:37:11 51°23.559 2°49.802 343.9 11.6 336 20.2
2009-09-08 07:37:16 51°23.574 2°49.792 343.7 11.6 337 20.3
2009-09-08 07:37:21 51°23.589 2°49.782 343.9 11.6 337 20.9
2009-09-08 07:37:26 51°23.604 2°49.772 344.2 11.6 337 20.8
2009-09-08 07:37:31 51°23.619 2°49.762 344.1 11.6 337 21
2009-09-08 07:37:36 51°23.634 2°49.752 344 11.6 337 21.2
2009-09-08 07:37:41 51°23.649 2°49.742 344.2 11.6 337 21.5
2009-09-08 07:37:46 51°23.664 2°49.732 344.3 11.6 337 21.6
2009-09-08 07:37:51 51°23.678 2°49.722 343.9 11.6 337 21.7
2009-09-08 07:37:56 51°23.693 2°49.712 344 11.6 338 21.7
2009-09-08 07:38:01 51°23.708 2°49.702 344.4 11.6 337 21.7
2009-09-08 07:38:06 51°23.723 2°49.692 344.6 11.6 338 21.6
2009-09-08 07:38:11 51°23.738 2°49.682 344.8 11.6 337 22
2009-09-08 07:38:16 51°23.753 2°49.672 344.3 11.6 338 21.7
2009-09-08 07:38:21 51°23.767 2°49.662 344 11.6 337 21.6
2009-09-08 07:38:26 51°23.782 2°49.652 343.9 11.6 337 21.9
2009-09-08 07:38:31 51°23.797 2°49.642 343.9 11.6 337 21.5
2009-09-08 07:38:36 51°23.812 2°49.632 344.1 11.6 337 21.7
2009-09-08 07:38:41 51°23.827 2°49.621 344.2 11.6 337 21.4
2009-09-08 07:38:46 51°23.841 2°49.611 344.4 11.6 337 21
2009-09-08 07:38:50 51°23.853 2°49.603 344.3 11.6 337 20.9
2009-09-08 07:38:56 51°23.871 2°49.591 344.3 11.6 337 20.9
2009-09-08 07:39:01 51°23.886 2°49.581 344.3 11.6 337 20.8
2009-09-08 07:39:06 51°23.901 2°49.571 344.5 11.6 337 20.5
2009-09-08 07:39:10 51°23.913 2°49.563 344.5 11.6 336 20.5
2009-09-08 07:39:16 51°23.931 2°49.551 344.1 11.6 337 20.5
2009-09-08 07:39:21 51°23.946 2°49.54 344.1 11.6 337 20.7
2009-09-08 07:39:26 51°23.96 2°49.53 344.1 11.6 336 20.8
2009-09-08 07:39:31 51°23.975 2°49.52 344 11.6 336 20.9
2009-09-08 07:39:36 51°23.99 2°49.509 343.9 11.6 336 20.9
2009-09-08 07:39:41 51°24.004 2°49.499 344.1 11.6 337 21.3
2009-09-08 07:39:46 51°24.019 2°49.489 344.3 11.6 337 21.4
2009-09-08 07:39:51 51°24.034 2°49.479 344.4 11.6 337 21.5
2009-09-08 07:39:56 51°24.049 2°49.468 344.2 11.6 336 21.6
2009-09-08 07:40:01 51°24.063 2°49.458 344.1 11.6 337 21.8
2009-09-08 07:40:06 51°24.078 2°49.448 344.3 11.6 336 21.6
2009-09-08 07:40:11 51°24.093 2°49.438 344.4 11.6 337 21.6
2009-09-08 07:40:16 51°24.108 2°49.427 344.7 11.6 336 21.5
2009-09-08 07:40:21 51°24.122 2°49.417 344.3 11.6 336 21.6
2009-09-08 07:40:26 51°24.137 2°49.407 344.2 11.6 337 21.8
2009-09-08 07:40:31 51°24.152 2°49.397 344.4 11.6 336 21.6
2009-09-08 07:40:36 51°24.167 2°49.386 344.2 11.6 336 21.8
2009-09-08 07:40:41 51°24.181 2°49.375 344.2 11.6 336 21.8
2009-09-08 07:40:46 51°24.196 2°49.365 343.7 11.6 335 21.7
2009-09-08 07:40:51 51°24.21 2°49.354 343.6 11.6 336 21.7
2009-09-08 07:40:56 51°24.225 2°49.344 343.9 11.6 336 21.8
2009-09-08 07:41:01 51°24.24 2°49.334 344.1 11.6 336 21.5
2009-09-08 07:41:06 51°24.255 2°49.323 344 11.6 336 21.6
2009-09-08 07:41:11 51°24.269 2°49.313 344 11.6 336 22.1
2009-09-08 07:41:16 51°24.284 2°49.302 344.1 11.5 336 21.9
2009-09-08 07:41:21 51°24.299 2°49.292 344.2 11.6 336 21.8
2009-09-08 07:41:26 51°24.313 2°49.281 344.1 11.6 335 21.5
2009-09-08 07:41:31 51°24.328 2°49.27 343.9 11.6 336 21.5
2009-09-08 07:41:36 51°24.343 2°49.26 343.9 11.7 336 21.5
2009-09-08 07:41:41 51°24.358 2°49.25 344.3 11.7 337 21.6
2009-09-08 07:41:46 51°24.372 2°49.239 344.5 11.7 336 21.3
2009-09-08 07:41:51 51°24.387 2°49.229 344.3 11.5 336 21.2
2009-09-08 07:41:56 51°24.401 2°49.218 344.3 11.6 335 21.3
2009-09-08 07:42:01 51°24.416 2°49.208 344.1 11.6 336 21.2
2009-09-08 07:42:06 51°24.431 2°49.197 344.1 11.6 336 21.4
2009-09-08 07:42:11 51°24.446 2°49.187 344.4 11.6 336 21.3
2009-09-08 07:42:16 51°24.46 2°49.177 344.3 11.6 336 21.6
2009-09-08 07:42:21 51°24.475 2°49.166 344.3 11.6 337 21.6
2009-09-08 07:42:26 51°24.49 2°49.156 344.8 11.5 337 21.2
2009-09-08 07:42:31 51°24.504 2°49.146 344.8 11.6 336 21.4
2009-09-08 07:42:36 51°24.519 2°49.136 344.8 11.6 337 21.1
2009-09-08 07:42:41 51°24.534 2°49.125 344.8 11.6 336 20.9
2009-09-08 07:42:46 51°24.549 2°49.115 344.5 11.6 337 21
2009-09-08 07:42:51 51°24.563 2°49.104 344.3 11.6 336 21
2009-09-08 07:42:56 51°24.578 2°49.095 344 11.6 337 20.9
2009-09-08 07:43:01 51°24.593 2°49.084 344.2 11.6 336 20.7
2009-09-08 07:43:06 51°24.608 2°49.074 344.4 11.6 336 20.7
2009-09-08 07:43:11 51°24.623 2°49.064 344.4 11.7 337 21.1
2009-09-08 07:43:16 51°24.637 2°49.053 344.4 11.6 337 20.9
2009-09-08 07:43:21 51°24.652 2°49.043 344.6 11.6 336 21.4
2009-09-08 07:43:26 51°24.667 2°49.033 344.5 11.7 337 21.4
2009-09-08 07:43:31 51°24.681 2°49.023 344.2 11.7 336 21.3
2009-09-08 07:43:36 51°24.696 2°49.013 344.4 11.7 337 20.9
2009-09-08 07:43:41 51°24.711 2°49.002 344.7 11.6 336 21.1
2009-09-08 07:43:46 51°24.726 2°48.992 344.5 11.6 337 21
2009-09-08 07:43:51 51°24.741 2°48.981 344.3 11.6 336 21.2
2009-09-08 07:43:56 51°24.756 2°48.971 344.5 11.6 337 21.1
2009-09-08 07:44:01 51°24.77 2°48.96 344.7 11.5 336 20.8
2009-09-08 07:44:06 51°24.784 2°48.951 344.5 10.9 336 21
2009-09-08 07:44:11 51°24.798 2°48.941 344.4 10.4 337 21.2
2009-09-08 07:44:16 51°24.81 2°48.932 344.8 9.9 335 21
2009-09-08 07:44:21 51°24.822 2°48.924 344.8 9.5 336 21.3
2009-09-08 07:44:26 51°24.834 2°48.915 344.8 9.3 335 21.4
2009-09-08 07:44:31 51°24.846 2°48.906 344.6 9.1 335 21.4
2009-09-08 07:44:36 51°24.857 2°48.897 344.3 8.9 334 21.4
2009-09-08 07:44:41 51°24.867 2°48.889 344 8.7 334 21.1
2009-09-08 07:44:46 51°24.878 2°48.88 343.6 8.7 333 21.5
2009-09-08 07:44:51 51°24.888 2°48.873 343.4 8.5 334 20.8
2009-09-08 07:44:56 51°24.899 2°48.864 343.5 8.3 334 21.2
2009-09-08 07:45:01 51°24.909 2°48.857 344.4 8.2 335 21.3
2009-09-08 07:45:06 51°24.919 2°48.849 345.5 8.2 335 21.7
2009-09-08 07:45:11 51°24.929 2°48.841 346.2 8.1 336 21.7
2009-09-08 07:45:16 51°24.94 2°48.834 346.7 8 336 22.1
2009-09-08 07:45:21 51°24.95 2°48.828 347.2 8 337 22.5
2009-09-08 07:45:26 51°24.96 2°48.821 347.7 7.9 338 22.3
2009-09-08 07:45:31 51°24.97 2°48.815 348.3 7.8 338 22.8
2009-09-08 07:45:36 51°24.98 2°48.808 348.8 7.8 338 23
2009-09-08 07:45:41 51°24.99 2°48.802 349.2 7.8 339 23.1
2009-09-08 07:45:46 51°25 2°48.796 349.6 7.8 339 23.2
2009-09-08 07:45:51 51°25.01 2°48.79 350 7.8 340 23.3
2009-09-08 07:45:56 51°25.02 2°48.785 350.7 7.6 340 23.4
2009-09-08 07:46:01 51°25.03 2°48.779 351.1 7.6 340 23.6
2009-09-08 07:46:06 51°25.04 2°48.774 351.4 7.6 341 23.8
2009-09-08 07:46:11 51°25.05 2°48.768 351.8 7.6 341 23.8
2009-09-08 07:46:16 51°25.06 2°48.763 352.2 7.6 342 24
2009-09-08 07:46:21 51°25.07 2°48.758 352.6 7.6 342 24.2
2009-09-08 07:46:26 51°25.08 2°48.753 353.1 7.6 343 24.3
2009-09-08 07:46:31 51°25.09 2°48.748 353.6 7.6 343 24.5
2009-09-08 07:46:36 51°25.1 2°48.743 354 7.6 343 24.6
2009-09-08 07:46:41 51°25.11 2°48.739 354.3 6.9 344 24.7
2009-09-08 07:46:46 51°25.118 2°48.735 354.6 6.6 343 24.8
2009-09-08 07:46:51 51°25.126 2°48.73 354.8 6.1 343 25
2009-09-08 07:46:56 51°25.134 2°48.727 355 5.9 342 25.1
2009-09-08 07:47:01 51°25.142 2°48.723 355.7 5.6 343 25
2009-09-08 07:47:06 51°25.149 2°48.719 356.5 5.4 343 25.2
2009-09-08 07:47:11 51°25.155 2°48.716 357.3 5.1 343 25.2
2009-09-08 07:47:16 51°25.162 2°48.713 358.5 4.9 344 25.3
2009-09-08 07:47:21 51°25.169 2°48.711 359.6 4.8 346 25.4
2009-09-08 07:47:26 51°25.175 2°48.708 0.8 4.8 346 25.4
2009-09-08 07:47:31 51°25.181 2°48.706 2.1 4.7 347 25.6
2009-09-08 07:47:36 51°25.188 2°48.703 3.2 4.6 348 25.6
2009-09-08 07:47:41 51°25.194 2°48.702 4.2 4.5 350 25.7
2009-09-08 07:47:46 51°25.2 2°48.7 5.2 4.4 350 25.8
2009-09-08 07:47:51 51°25.205 2°48.699 7.4 4.2 353 25.8
2009-09-08 07:47:56 51°25.211 2°48.698 11.4 3.9 357 25.9
2009-09-08 07:48:01 51°25.216 2°48.699 16 3.6 3 26
2009-09-08 07:48:06 51°25.221 2°48.7 20.9 3.4 7 25.9
2009-09-08 07:48:11 51°25.225 2°48.701 26.1 3.2 11 26
2009-09-08 07:48:16 51°25.229 2°48.703 31.2 3 16 25.9
2009-09-08 07:48:21 51°25.233 2°48.705 36.4 2.8 22 26
2009-09-08 07:48:26 51°25.236 2°48.708 41.4 2.6 27 26
2009-09-08 07:48:31 51°25.239 2°48.711 46.5 2.5 32 26
2009-09-08 07:48:36 51°25.241 2°48.714 51.7 2.3 41 26
2009-09-08 07:48:41 51°25.244 2°48.718 56.7 2.2 46 25.9
2009-09-08 07:48:46 51°25.245 2°48.722 61.8 2.1 53 25.8
2009-09-08 07:48:51 51°25.247 2°48.725 66.9 2 60 25.9
2009-09-08 07:48:56 51°25.248 2°48.729 71.9 1.8 70 25.8
2009-09-08 07:49:01 51°25.248 2°48.733 77 1.8 77 25.8
2009-09-08 07:49:06 51°25.248 2°48.737 81.9 1.8 84 25.7
2009-09-08 07:49:11 51°25.248 2°48.741 86.8 1.8 93 25.6
2009-09-08 07:49:16 51°25.248 2°48.745 91.5 1.8 98 25.7
2009-09-08 07:49:21 51°25.247 2°48.749 96.5 1.8 111 25.6
2009-09-08 07:49:26 51°25.245 2°48.753 101.8 1.9 118 25.5
2009-09-08 07:49:31 51°25.244 2°48.756 107.2 2 122 25.5
2009-09-08 07:49:36 51°25.242 2°48.76 112.6 2.1 132 25.4
2009-09-08 07:49:41 51°25.24 2°48.763 117.9 2.2 139 25.4
2009-09-08 07:49:46 51°25.237 2°48.766 123.3 2.2 144 25.4
2009-09-08 07:49:51 51°25.235 2°48.769 128.7 2.3 150 25.3
2009-09-08 07:49:56 51°25.231 2°48.771 133.8 2.4 157 25.2
2009-09-08 07:50:01 51°25.228 2°48.773 139.2 2.6 163 25
2009-09-08 07:50:06 51°25.224 2°48.774 144.4 2.7 166 25.1
2009-09-08 07:50:11 51°25.221 2°48.775 149.5 2.8 171 25.1
2009-09-08 07:50:16 51°25.216 2°48.776 154.7 2.9 176 25.1
2009-09-08 07:50:21 51°25.212 2°48.776 158.6 3.1 178 25
2009-09-08 07:50:26 51°25.208 2°48.776 161.6 3.2 180 24.9
2009-09-08 07:50:31 51°25.203 2°48.776 163.9 3.3 182 24.9
2009-09-08 07:50:36 51°25.199 2°48.776 166.1 3.4 184 24.8
2009-09-08 07:50:41 51°25.194 2°48.774 168.1 3.4 187 24.8
2009-09-08 07:50:46 51°25.189 2°48.773 171.4 3.5 191 24.9
2009-09-08 07:50:51 51°25.184 2°48.771 176.1 3.6 194 24.8
2009-09-08 07:50:56 51°25.18 2°48.769 181.1 3.5 200 24.8
2009-09-08 07:51:01 51°25.175 2°48.765 185.8 3.5 205 24.8
2009-09-08 07:51:06 51°25.171 2°48.762 190.2 3.5 207 24.8
2009-09-08 07:51:11 51°25.166 2°48.758 194 3.5 211 24.8
2009-09-08 07:51:16 51°25.162 2°48.754 197.8 3.7 213 24.9
2009-09-08 07:51:21 51°25.158 2°48.749 201.1 3.7 216 24.9
2009-09-08 07:51:26 51°25.154 2°48.744 204.5 3.8 217 24.9
2009-09-08 07:51:31 51°25.149 2°48.738 207.6 3.9 220 24.9
2009-09-08 07:51:36 51°25.145 2°48.732 210.6 4 223 25
2009-09-08 07:51:41 51°25.141 2°48.726 213.2 4 225 25.1
2009-09-08 07:51:46 51°25.138 2°48.72 215.4 4 227 25.2
2009-09-08 07:51:51 51°25.134 2°48.713 216.9 4.1 227 25.2
2009-09-08 07:51:56 51°25.13 2°48.707 219.3 4.2 229 25.2
2009-09-08 07:52:01 51°25.126 2°48.7 221.3 4.2 230 25.3
2009-09-08 07:52:06 51°25.122 2°48.692 223.3 4.3 232 25.3
2009-09-08 07:52:10 51°25.12 2°48.686 226.1 4.4 235 25.3
2009-09-08 07:52:16 51°25.116 2°48.676 229.1 4.4 236 25.3
2009-09-08 07:52:21 51°25.113 2°48.668 232.2 4.5 240 25.3
2009-09-08 07:52:26 51°25.11 2°48.659 235.3 4.6 241 25.3
2009-09-08 07:52:31 51°25.107 2°48.65 238.6 4.6 243 25.4
2009-09-08 07:52:36 51°25.104 2°48.64 242 4.6 246 25.4
2009-09-08 07:52:41 51°25.102 2°48.63 245.4 4.7 248 25.3
2009-09-08 07:52:46 51°25.1 2°48.621 248.5 4.7 250 25.4
2009-09-08 07:52:51 51°25.098 2°48.611 251.9 4.6 254 25.5
2009-09-08 07:52:56 51°25.096 2°48.602 255 4.4 255 25.5
2009-09-08 07:53:01 51°25.095 2°48.592 257.7 4.4 257 25.7
2009-09-08 07:53:06 51°25.094 2°48.582 260.5 4.3 259 25.8
2009-09-08 07:53:11 51°25.093 2°48.573 263.1 4.3 260 25.9
2009-09-08 07:53:16 51°25.092 2°48.564 265.6 4.2 262 26
2009-09-08 07:53:21 51°25.091 2°48.555 268.2 4.1 264 26
2009-09-08 07:53:26 51°25.091 2°48.546 270.9 4.1 268 26.1
2009-09-08 07:53:31 51°25.091 2°48.537 273.6 4.1 269 26.1
2009-09-08 07:53:36 51°25.091 2°48.528 276.6 3.9 272 26.2
2009-09-08 07:53:41 51°25.092 2°48.519 280.4 3.8 275 26.3
2009-09-08 07:53:46 51°25.092 2°48.511 284.5 3.8 278 26.4
2009-09-08 07:53:51 51°25.093 2°48.503 288.6 3.7 279 26.4
2009-09-08 07:53:56 51°25.094 2°48.495 291.8 3.6 282 26.6
2009-09-08 07:54:01 51°25.096 2°48.488 295.7 3.5 285 26.6
2009-09-08 07:54:06 51°25.097 2°48.48 300.5 3.4 286 26.8
2009-09-08 07:54:10 51°25.098 2°48.475 303.6 3.3 289 26.8
2009-09-08 07:54:16 51°25.1 2°48.467 308.4 3.2 292 26.9
2009-09-08 07:54:21 51°25.102 2°48.46 311.5 3.2 296 27
2009-09-08 07:54:26 51°25.104 2°48.454 316.2 3.1 297 27.1
2009-09-08 07:54:31 51°25.106 2°48.449 319.4 3 299 27.2
2009-09-08 07:54:36 51°25.108 2°48.443 324 2.9 302 27.2
2009-09-08 07:54:41 51°25.111 2°48.438 327.8 2.8 305 27.3
2009-09-08 07:54:46 51°25.113 2°48.433 331.6 2.8 307 27.3
2009-09-08 07:54:51 51°25.115 2°48.428 334.5 2.7 310 27.6
2009-09-08 07:54:56 51°25.118 2°48.424 338.2 2.6 314 27.5
2009-09-08 07:55:01 51°25.12 2°48.42 342.6 2.6 314 27.5
2009-09-08 07:55:06 51°25.122 2°48.416 345.6 2.5 315 27.5
2009-09-08 07:55:10 51°25.125 2°48.414 349.9 2.3 322 27.6
2009-09-08 07:55:16 51°25.128 2°48.41 353.6 2.2 323 27.8
2009-09-08 07:55:21 51°25.13 2°48.407 356.5 2.2 325 27.8
2009-09-08 07:55:26 51°25.132 2°48.405 1 2.1 328 27.7
2009-09-08 07:55:31 51°25.135 2°48.402 4.6 2 330 27.9
2009-09-08 07:55:36 51°25.137 2°48.4 8.1 1.9 334 27.8
2009-09-08 07:55:41 51°25.14 2°48.399 11 1.8 337 27.8
2009-09-08 07:55:46 51°25.142 2°48.397 14.7 1.8 338 27.9
2009-09-08 07:55:51 51°25.144 2°48.396 19 1.7 340 28
2009-09-08 07:55:56 51°25.146 2°48.395 21.8 1.6 347 28.1
2009-09-08 07:56:01 51°25.149 2°48.394 25.4 1.6 348 28.1
2009-09-08 07:56:06 51°25.15 2°48.393 28.9 1.5 350 28.1
2009-09-08 07:56:10 51°25.152 2°48.393 33.1 1.4 357 28.2
2009-09-08 07:56:16 51°25.154 2°48.393 35.9 1.2 2 28.1
2009-09-08 07:56:21 51°25.156 2°48.393 39.4 1.2 5 28.2
2009-09-08 07:56:26 51°25.158 2°48.394 43.7 1.2 8 28.1
2009-09-08 07:56:31 51°25.159 2°48.394 46.5 1.1 14 28.2
2009-09-08 07:56:36 51°25.161 2°48.395 50.1 1.1 17 28.2
2009-09-08 07:56:41 51°25.162 2°48.396 53.6 1 23 28.2
2009-09-08 07:56:46 51°25.163 2°48.397 57.8 0.9 26 28.2
2009-09-08 07:56:51 51°25.164 2°48.398 60.6 0.8 36 28.2
2009-09-08 07:56:56 51°25.164 2°48.4 64.7 0.8 47 28.2
2009-09-08 07:57:01 51°25.165 2°48.401 68.1 0.8 50 28.1
2009-09-08 07:57:06 51°25.166 2°48.402 71.3 0.7 55 28.1
2009-09-08 07:57:11 51°25.166 2°48.404 74 0.7 67 28.1
2009-09-08 07:57:16 51°25.166 2°48.406 77.2 0.9 72 28.2
2009-09-08 07:57:21 51°25.166 2°48.408 80.7 1.1 89 28.1
2009-09-08 07:57:26 51°25.166 2°48.411 84.5 1.4 91 28.1
2009-09-08 07:57:31 51°25.166 2°48.415 86.9 1.7 94 28.1
2009-09-08 07:57:36 51°25.166 2°48.419 89.5 2.1 97 28
2009-09-08 07:57:41 51°25.166 2°48.424 92.3 2.3 98 28
2009-09-08 07:57:46 51°25.165 2°48.43 95.7 2.5 101 27.9
2009-09-08 07:57:51 51°25.164 2°48.436 98.3 2.8 104 27.9
2009-09-08 07:57:56 51°25.163 2°48.442 101 3.1 108 27.8
2009-09-08 07:58:01 51°25.161 2°48.449 103.2 3.2 112 27.7
2009-09-08 07:58:06 51°25.159 2°48.456 106 3.4 115 27.7
2009-09-08 07:58:11 51°25.157 2°48.462 109.2 3.5 118 27.5
2009-09-08 07:58:16 51°25.154 2°48.469 111.5 3.6 123 27.4
2009-09-08 07:58:21 51°25.151 2°48.476 114.4 3.7 125 27.3
2009-09-08 07:58:26 51°25.147 2°48.483 118.4 3.9 131 27.2
2009-09-08 07:58:30 51°25.144 2°48.488 122.6 3.8 134 27.1
2009-09-08 07:58:36 51°25.139 2°48.495 125.7 3.8 139 27
2009-09-08 07:58:41 51°25.135 2°48.5 127.9 3.8 142 26.8
2009-09-08 07:58:46 51°25.131 2°48.505 130.8 3.8 145 26.8
2009-09-08 07:58:51 51°25.126 2°48.509 133.5 3.7 148 26.8
2009-09-08 07:58:56 51°25.122 2°48.513 136.2 3.7 152 26.6
2009-09-08 07:59:01 51°25.117 2°48.517 139.3 3.7 156 26.5